createdAt,value
2022-10-31T00:00:23.732Z,13.20
2022-10-31T00:03:27.177Z,13.40
2022-10-31T00:09:30.980Z,12.50
2022-10-31T00:12:33.005Z,12.98
2022-10-31T00:15:39.418Z,13.30
2022-10-31T00:18:41.397Z,12.88
2022-10-31T00:21:43.224Z,13.40
2022-10-31T00:24:45.012Z,12.45
2022-10-31T00:27:46.741Z,13.10
2022-10-31T00:30:48.703Z,13.23
2022-10-31T00:33:50.666Z,12.45
2022-10-31T00:36:52.440Z,12.25
2022-10-31T00:39:54.117Z,12.32
2022-10-31T00:42:56.070Z,12.15
2022-10-31T00:45:57.893Z,12.57
2022-10-31T00:48:59.872Z,12.55
2022-10-31T00:52:01.696Z,13.30
2022-10-31T00:55:03.749Z,13.18
2022-10-31T00:58:05.669Z,13.60
2022-10-31T01:01:07.671Z,13.75
2022-10-31T01:04:09.455Z,13.35
2022-10-31T01:07:13.253Z,13.52
2022-10-31T01:10:15.106Z,13.90
2022-10-31T01:13:16.933Z,14.45
2022-10-31T01:16:21.436Z,13.10
2022-10-31T01:19:23.373Z,13.85
2022-10-31T01:22:25.119Z,13.73
2022-10-31T01:25:26.940Z,13.00
2022-10-31T01:28:28.683Z,13.55
2022-10-31T01:31:33.378Z,13.55
2022-10-31T01:34:35.592Z,12.93
2022-10-31T01:37:37.637Z,13.43
2022-10-31T01:40:39.531Z,13.57
2022-10-31T01:43:55.056Z,11.80
2022-10-31T01:47:03.963Z,12.18
2022-10-31T01:50:13.970Z,12.57
2022-10-31T01:53:17.314Z,12.45
2022-10-31T01:56:21.556Z,12.75
2022-10-31T01:59:27.705Z,12.60
2022-10-31T02:02:33.002Z,12.20
2022-10-31T02:05:35.484Z,11.68
2022-10-31T02:08:40.054Z,12.45
2022-10-31T02:11:43.374Z,11.60
2022-10-31T02:14:45.698Z,12.18
2022-10-31T02:17:47.710Z,12.00
2022-10-31T02:21:04.368Z,12.60
2022-10-31T02:24:33.921Z,12.88
2022-10-31T02:27:45.599Z,13.27
2022-10-31T02:30:53.149Z,12.60
2022-10-31T02:34:10.550Z,13.50
2022-10-31T02:37:17.693Z,12.60
2022-10-31T02:40:24.561Z,12.98
2022-10-31T02:43:33.869Z,12.13
2022-10-31T02:46:50.723Z,12.35
2022-10-31T02:50:24.778Z,12.80
2022-10-31T02:56:28.725Z,12.00
2022-10-31T02:59:33.413Z,12.75
2022-10-31T03:02:59.737Z,13.32
2022-10-31T03:06:10.086Z,13.60
2022-10-31T03:09:17.422Z,13.32
2022-10-31T03:12:38.413Z,13.75
2022-10-31T03:15:51.434Z,12.93
2022-10-31T03:18:56.482Z,12.25
2022-10-31T03:22:12.244Z,13.63
2022-10-31T03:25:14.974Z,13.90
2022-10-31T03:31:31.060Z,11.68
2022-10-31T03:34:34.587Z,10.40
2022-10-31T03:37:38.196Z,10.98
2022-10-31T03:40:43.419Z,10.95
2022-10-31T03:43:55.534Z,11.13
2022-10-31T03:46:58.579Z,11.30
2022-10-31T03:50:01.043Z,11.07
2022-10-31T03:53:25.548Z,10.27
2022-10-31T03:56:41.163Z,11.40
2022-10-31T04:00:02.671Z,10.98
2022-10-31T04:03:13.764Z,9.82
2022-10-31T04:06:18.658Z,10.00
2022-10-31T04:09:21.648Z,10.05
2022-10-31T04:12:26.301Z,10.15
2022-10-31T04:15:29.520Z,9.63
2022-10-31T04:18:31.464Z,10.40
2022-10-31T04:21:33.219Z,9.50
2022-10-31T04:24:34.908Z,9.77
2022-10-31T04:27:36.619Z,10.55
2022-10-31T04:30:38.646Z,9.90
2022-10-31T04:33:40.637Z,10.25
2022-10-31T04:36:42.379Z,10.43
2022-10-31T04:39:44.146Z,10.25
2022-10-31T04:42:45.812Z,10.45
2022-10-31T04:45:47.535Z,9.88
2022-10-31T04:48:49.786Z,10.50
2022-10-31T04:51:51.742Z,9.75
2022-10-31T04:54:53.735Z,9.57
2022-10-31T04:57:55.531Z,10.30
2022-10-31T05:00:58.327Z,9.48
2022-10-31T05:04:00.169Z,9.30
2022-10-31T05:07:02.303Z,9.63
2022-10-31T05:10:04.267Z,9.93
2022-10-31T05:13:06.572Z,9.45
2022-10-31T05:16:08.501Z,9.07
2022-10-31T05:19:10.188Z,9.57
2022-10-31T05:22:11.904Z,9.13
2022-10-31T05:25:13.970Z,10.35
2022-10-31T05:28:15.684Z,9.48
2022-10-31T05:31:17.645Z,10.02
2022-10-31T05:34:19.591Z,9.77
2022-10-31T05:37:21.318Z,9.98
2022-10-31T05:40:23.230Z,8.98
2022-10-31T05:43:25.022Z,8.90
2022-10-31T05:46:26.880Z,9.70
2022-10-31T05:49:28.781Z,9.18
2022-10-31T05:52:30.647Z,10.43
2022-10-31T05:55:33.330Z,10.60
2022-10-31T05:58:35.306Z,10.70
2022-10-31T06:01:37.012Z,9.80
2022-10-31T06:04:38.742Z,10.93
2022-10-31T06:07:41.213Z,9.85
2022-10-31T06:10:43.199Z,9.95
2022-10-31T06:13:45.405Z,10.25
2022-10-31T06:16:47.091Z,9.77
2022-10-31T06:22:51.922Z,8.57
2022-10-31T06:25:53.782Z,9.40
2022-10-31T06:28:56.874Z,9.65
2022-10-31T06:32:01.807Z,10.20
2022-10-31T06:35:03.670Z,9.50
2022-10-31T06:38:05.667Z,9.85
2022-10-31T06:41:07.668Z,9.70
2022-10-31T06:44:09.441Z,9.88
2022-10-31T06:47:11.392Z,10.55
2022-10-31T06:50:13.132Z,9.75
2022-10-31T06:53:15.453Z,10.50
2022-10-31T06:56:17.421Z,11.05
2022-10-31T06:59:19.212Z,11.32
2022-10-31T07:02:20.987Z,11.73
2022-10-31T07:05:22.878Z,11.40
2022-10-31T07:08:26.207Z,10.90
2022-10-31T07:11:27.927Z,10.02
2022-10-31T07:14:29.612Z,11.00
2022-10-31T07:17:31.766Z,10.25
2022-10-31T07:20:33.604Z,11.40
2022-10-31T07:23:35.383Z,10.75
2022-10-31T07:26:37.032Z,11.73
2022-10-31T07:29:38.720Z,11.02
2022-10-31T07:32:45.549Z,12.93
2022-10-31T07:35:47.928Z,14.50
2022-10-31T07:38:50.690Z,13.82
2022-10-31T07:41:52.439Z,15.02
2022-10-31T07:44:56.813Z,15.82
2022-10-31T07:48:00.120Z,15.70
2022-10-31T07:51:01.917Z,15.73
2022-10-31T07:54:03.720Z,15.95
2022-10-31T07:57:05.393Z,16.52
2022-10-31T08:00:09.276Z,16.48
2022-10-31T08:03:13.576Z,17.35
2022-10-31T08:06:15.277Z,17.95
2022-10-31T08:09:16.942Z,17.33
2022-10-31T08:12:19.531Z,14.57
2022-10-31T08:15:21.527Z,13.60
2022-10-31T08:18:24.742Z,13.82
2022-10-31T08:21:26.433Z,12.90
2022-10-31T08:24:28.454Z,13.27
2022-10-31T08:27:30.515Z,12.13
2022-10-31T08:30:35.524Z,13.20
2022-10-31T08:33:37.373Z,12.70
2022-10-31T08:36:39.244Z,13.25
2022-10-31T08:39:40.948Z,13.95
2022-10-31T08:42:42.757Z,13.23
2022-10-31T08:45:45.683Z,13.35
2022-10-31T08:48:51.154Z,13.60
2022-10-31T08:51:52.912Z,13.90
2022-10-31T08:54:54.900Z,14.63
2022-10-31T08:57:58.563Z,14.95
2022-10-31T09:01:02.140Z,14.90
2022-10-31T09:07:21.853Z,16.13
2022-10-31T09:10:23.933Z,16.45
2022-10-31T09:13:28.155Z,16.73
2022-10-31T09:16:30.066Z,17.67
2022-10-31T09:19:31.990Z,17.48
2022-10-31T09:22:33.985Z,17.00
2022-10-31T09:25:36.817Z,16.65
2022-10-31T09:28:38.594Z,17.35
2022-10-31T09:31:44.744Z,17.15
2022-10-31T09:34:46.817Z,16.75
2022-10-31T09:37:48.557Z,17.38
2022-10-31T09:41:27.121Z,17.17
2022-10-31T09:44:49.821Z,17.58
2022-10-31T09:48:06.308Z,17.55
2022-10-31T09:51:17.704Z,18.55
2022-10-31T09:54:31.416Z,17.40
2022-10-31T10:00:37.147Z,18.13
2022-10-31T10:03:47.725Z,18.10
2022-10-31T10:06:53.567Z,18.25
2022-10-31T10:09:55.405Z,16.90
2022-10-31T10:13:09.882Z,18.45
2022-10-31T10:16:35.822Z,17.38
2022-10-31T10:20:11.489Z,17.17
2022-10-31T10:23:31.306Z,17.20
2022-10-31T10:26:44.159Z,16.83
2022-10-31T10:30:13.848Z,17.13
2022-10-31T10:33:41.124Z,16.60
2022-10-31T10:36:48.618Z,16.45
2022-10-31T10:39:56.653Z,15.73
2022-10-31T10:43:22.704Z,15.73
2022-10-31T10:46:49.312Z,16.02
2022-10-31T10:49:52.703Z,16.10
2022-10-31T10:56:17.618Z,15.32
2022-10-31T10:59:22.111Z,16.00
2022-10-31T11:02:28.189Z,16.17
2022-10-31T11:05:30.315Z,15.90
2022-10-31T11:08:37.428Z,16.05
2022-10-31T11:11:40.056Z,15.13
2022-10-31T11:14:56.905Z,14.77
2022-10-31T11:17:58.867Z,14.93
2022-10-31T11:21:06.455Z,14.23
2022-10-31T11:24:11.233Z,13.65
2022-10-31T11:27:16.964Z,13.90
2022-10-31T11:30:18.904Z,13.15
2022-10-31T11:33:40.796Z,13.65
2022-10-31T11:36:45.495Z,12.57
2022-10-31T11:40:10.627Z,12.30
2022-10-31T11:43:18.145Z,13.23
2022-10-31T11:46:27.789Z,13.27
2022-10-31T11:50:01.896Z,14.13
2022-10-31T11:56:16.806Z,14.82
2022-10-31T11:59:20.451Z,15.65
2022-10-31T12:02:22.890Z,16.02
2022-10-31T12:05:30.164Z,15.97
2022-10-31T12:08:36.529Z,15.20
2022-10-31T12:11:50.631Z,14.55
2022-10-31T12:15:19.314Z,14.38
2022-10-31T12:18:29.442Z,13.00
2022-10-31T12:21:57.001Z,14.60
2022-10-31T12:25:18.729Z,14.63
2022-10-31T12:28:55.454Z,15.88
2022-10-31T12:32:16.601Z,14.32
2022-10-31T12:35:35.569Z,15.18
2022-10-31T12:38:46.390Z,16.00
2022-10-31T12:41:52.509Z,15.93
2022-10-31T12:45:26.453Z,16.30
2022-10-31T12:48:50.750Z,15.75
2022-10-31T12:52:13.341Z,16.15
2022-10-31T12:55:36.098Z,16.42
2022-10-31T12:58:50.756Z,15.20
2022-10-31T13:02:00.668Z,14.98
2022-10-31T13:05:17.734Z,14.90
2022-10-31T13:08:24.997Z,15.23
2022-10-31T13:11:33.465Z,14.38
2022-10-31T13:14:46.014Z,15.82
2022-10-31T13:17:52.459Z,14.70
2022-10-31T13:20:55.856Z,15.15
2022-10-31T13:24:01.860Z,14.85
2022-10-31T13:27:14.194Z,14.82
2022-10-31T13:30:21.969Z,16.38
2022-10-31T13:33:50.111Z,15.70
2022-10-31T13:37:15.997Z,14.35
2022-10-31T13:40:45.164Z,13.30
2022-10-31T13:44:04.847Z,13.25
2022-10-31T13:47:29.164Z,12.40
2022-10-31T13:50:33.183Z,12.07
2022-10-31T13:54:07.302Z,10.65
2022-10-31T14:00:40.152Z,5.22
2022-10-31T14:07:19.154Z,4.45
2022-10-31T14:13:44.370Z,4.18
2022-10-31T14:16:49.031Z,4.38
2022-10-31T14:20:21.794Z,4.15
2022-10-31T14:23:33.821Z,4.10
2022-10-31T14:26:37.277Z,3.83
2022-10-31T14:32:40.942Z,4.03
2022-10-31T14:35:51.744Z,3.83
2022-10-31T14:39:10.393Z,4.05
2022-10-31T14:42:15.040Z,4.40
2022-10-31T14:45:49.207Z,4.05
2022-10-31T14:49:19.771Z,4.38
2022-10-31T14:52:22.255Z,3.75
2022-10-31T14:55:25.746Z,4.27
2022-10-31T15:02:11.159Z,3.80
2022-10-31T15:05:14.124Z,3.67
2022-10-31T15:08:28.768Z,3.60
2022-10-31T15:11:38.817Z,4.45
2022-10-31T15:14:40.534Z,3.85
2022-10-31T15:17:50.228Z,3.75
2022-10-31T15:20:53.493Z,3.97
2022-10-31T15:23:57.579Z,3.83
2022-10-31T15:27:03.873Z,3.67
2022-10-31T15:30:22.368Z,3.65
2022-10-31T15:33:46.944Z,3.70
2022-10-31T15:36:53.165Z,3.47
2022-10-31T15:39:54.868Z,3.75
2022-10-31T15:42:58.733Z,4.07
2022-10-31T15:46:01.355Z,3.85
2022-10-31T15:49:03.574Z,3.92
2022-10-31T15:52:22.093Z,3.97
2022-10-31T15:55:28.952Z,4.30
2022-10-31T15:58:33.578Z,3.92
2022-10-31T16:01:35.410Z,4.32
2022-10-31T16:04:37.508Z,3.97
2022-10-31T16:07:50.916Z,4.15
2022-10-31T16:10:53.880Z,3.70
2022-10-31T16:14:07.497Z,2.85
2022-10-31T16:20:28.216Z,3.90
2022-10-31T16:23:30.209Z,4.20
2022-10-31T16:26:32.173Z,3.67
2022-10-31T16:29:44.195Z,3.97
2022-10-31T16:32:59.594Z,3.67
2022-10-31T16:36:29.853Z,3.50
2022-10-31T16:39:24.921Z,3.90
2022-10-31T16:42:27.912Z,6.45
2022-10-31T16:45:31.975Z,4.40
2022-10-31T16:48:33.965Z,4.07
2022-10-31T16:51:35.880Z,11.35
2022-10-31T16:54:38.187Z,21.10
2022-10-31T16:57:46.505Z,18.35
2022-10-31T17:00:48.551Z,10.18
2022-10-31T17:03:50.287Z,6.85
2022-10-31T17:06:52.636Z,6.60
2022-10-31T17:09:54.774Z,5.55
2022-10-31T17:12:58.086Z,4.97
2022-10-31T17:16:01.999Z,4.72
2022-10-31T17:19:04.065Z,4.72
2022-10-31T17:22:05.779Z,4.43
2022-10-31T17:25:14.043Z,4.47
2022-10-31T17:28:16.286Z,4.18
2022-10-31T17:31:30.586Z,3.70
2022-10-31T17:34:32.679Z,4.00
2022-10-31T17:37:34.451Z,4.05
2022-10-31T17:40:39.024Z,4.30
2022-10-31T17:43:40.998Z,4.60
2022-10-31T17:46:42.823Z,4.47
2022-10-31T17:49:44.796Z,3.83
2022-10-31T17:52:47.246Z,3.58
2022-10-31T17:55:49.091Z,4.45
2022-10-31T17:58:51.087Z,3.90
2022-10-31T18:01:52.924Z,3.60
2022-10-31T18:04:54.892Z,3.67
2022-10-31T18:07:59.604Z,3.78
2022-10-31T18:11:17.376Z,3.60
2022-10-31T18:14:19.120Z,4.20
2022-10-31T18:17:22.029Z,4.07
2022-10-31T18:20:23.773Z,3.90
2022-10-31T18:23:25.545Z,3.20
2022-10-31T18:26:28.458Z,3.60
2022-10-31T18:29:30.252Z,3.45
2022-10-31T18:32:32.054Z,3.50
2022-10-31T18:35:38.581Z,3.90
2022-10-31T18:38:44.875Z,4.10
2022-10-31T18:41:46.567Z,3.80
2022-10-31T18:44:48.644Z,3.83
2022-10-31T18:47:53.379Z,3.92
2022-10-31T18:50:58.163Z,3.72
2022-10-31T18:54:01.495Z,3.28
2022-10-31T18:57:03.294Z,3.50
2022-10-31T19:00:06.377Z,4.03
2022-10-31T19:03:08.283Z,3.97
2022-10-31T19:06:10.805Z,3.97
2022-10-31T19:09:12.859Z,3.60
2022-10-31T19:12:14.720Z,3.97
2022-10-31T19:15:16.819Z,3.90
2022-10-31T19:18:19.476Z,2.97
2022-10-31T19:21:21.744Z,3.63
2022-10-31T19:24:23.604Z,4.07
2022-10-31T19:27:28.125Z,4.65
2022-10-31T19:30:29.838Z,3.55
2022-10-31T19:33:35.105Z,4.15
2022-10-31T19:36:38.194Z,3.60
2022-10-31T19:39:44.098Z,3.70
2022-10-31T19:42:46.219Z,4.47
2022-10-31T19:45:59.014Z,3.70
2022-10-31T19:49:01.058Z,3.47
2022-10-31T19:52:02.825Z,3.75
2022-10-31T19:55:05.033Z,3.30
2022-10-31T19:58:06.812Z,4.78
2022-10-31T20:01:14.255Z,4.15
2022-10-31T20:04:16.075Z,3.88
2022-10-31T20:07:17.996Z,3.90
2022-10-31T20:10:19.989Z,3.78
2022-10-31T20:13:22.683Z,3.95
2022-10-31T20:16:26.085Z,3.70
2022-10-31T20:22:29.547Z,3.75
2022-10-31T20:25:33.268Z,4.32
2022-10-31T20:28:38.822Z,4.05
2022-10-31T20:31:45.973Z,3.70
2022-10-31T20:37:54.917Z,4.57
2022-10-31T20:41:02.755Z,4.20
2022-10-31T20:44:04.804Z,4.22
2022-10-31T20:47:06.732Z,4.20
2022-10-31T20:50:08.925Z,4.28
2022-10-31T20:53:11.025Z,4.72
2022-10-31T20:56:18.362Z,4.50
2022-10-31T20:59:20.194Z,4.40
2022-10-31T21:02:22.027Z,4.55
2022-10-31T21:05:24.031Z,4.85
2022-10-31T21:08:27.092Z,4.82
2022-10-31T21:11:29.307Z,4.22
2022-10-31T21:14:31.109Z,4.38
2022-10-31T21:17:32.936Z,4.10
2022-10-31T21:20:35.139Z,4.78
2022-10-31T21:23:37.766Z,4.80
2022-10-31T21:26:42.211Z,4.80
2022-10-31T21:29:44.265Z,4.20
2022-10-31T21:32:45.922Z,5.95
2022-10-31T21:35:51.727Z,4.03
2022-10-31T21:38:55.126Z,4.45
2022-10-31T21:44:58.585Z,5.18
2022-10-31T21:48:00.514Z,4.93
2022-10-31T21:51:04.311Z,5.45
2022-10-31T21:54:25.109Z,4.93
2022-10-31T21:57:26.817Z,6.10
2022-10-31T22:00:28.790Z,5.70
2022-10-31T22:03:30.758Z,6.00
2022-10-31T22:06:33.571Z,6.22
2022-10-31T22:09:35.444Z,5.47
2022-10-31T22:12:37.115Z,4.85
2022-10-31T22:15:39.096Z,4.95
2022-10-31T22:18:42.452Z,4.82
2022-10-31T22:24:48.160Z,4.88
2022-10-31T22:27:52.391Z,4.90
2022-10-31T22:30:54.082Z,4.90
2022-10-31T22:33:56.260Z,5.00
2022-10-31T22:36:58.257Z,5.47
2022-10-31T22:39:59.933Z,4.97
2022-10-31T22:43:02.359Z,4.78
2022-10-31T22:46:06.749Z,5.00
2022-10-31T22:49:14.609Z,4.90
2022-10-31T22:52:16.460Z,4.03
2022-10-31T22:55:18.309Z,4.57
2022-10-31T22:58:20.140Z,5.50
2022-10-31T23:01:28.316Z,5.78
2022-10-31T23:04:30.266Z,4.90
2022-10-31T23:07:32.945Z,5.28
2022-10-31T23:10:41.111Z,5.40
2022-10-31T23:14:02.023Z,5.63
2022-10-31T23:17:04.207Z,4.53
2022-10-31T23:20:07.084Z,5.00
2022-10-31T23:23:08.848Z,4.28
2022-10-31T23:26:29.432Z,4.82
2022-10-31T23:29:31.687Z,4.70
2022-10-31T23:32:36.739Z,5.05
2022-10-31T23:35:38.485Z,4.20
2022-10-31T23:38:40.822Z,4.30
2022-10-31T23:41:43.366Z,4.78
2022-10-31T23:44:45.721Z,4.67
2022-10-31T23:47:47.381Z,5.05
2022-10-31T23:50:49.352Z,4.82
2022-10-31T23:53:51.488Z,4.80
2022-10-31T23:56:54.199Z,5.10
2022-10-31T23:59:55.861Z,4.97
